Time;durP1;ratioP1;P1;durP2;ratioP2;P2;SDS_P1;SDS_P2;PMS_P1;PMS_P2;Temp;Humidity;BMP_temperature;BMP_pressure;BME280_temperature;BME280_humidity;BME280_pressure;Samples;Min_cycle;Max_cycle;Signal;HPM_P1;HPM_P2
2022/09/10 00:01:50;;;;;;;8.32;3.72;;;15.70;99.90;;;;;;5089696;28;20431;-71
2022/09/10 00:04:17;;;;;;;11.68;3.95;;;15.70;99.90;;;;;;5089702;28;20036;-70
2022/09/10 00:06:44;;;;;;;8.13;4.28;;;15.70;99.90;;;;;;5089733;28;20402;-71
2022/09/10 00:09:11;;;;;;;6.57;3.30;;;15.60;99.90;;;;;;5089520;28;20035;-71
2022/09/10 00:11:39;;;;;;;8.68;3.80;;;15.60;99.90;;;;;;5089805;28;20674;-71
2022/09/10 00:14:06;;;;;;;9.63;3.80;;;15.60;99.90;;;;;;5089599;28;20028;-72
2022/09/10 00:16:32;;;;;;;6.30;3.10;;;15.60;99.90;;;;;;5089488;28;20028;-71
2022/09/10 00:19:00;;;;;;;9.73;3.15;;;15.60;99.90;;;;;;5070911;28;20036;-72
2022/09/10 00:21:26;;;;;;;9.65;3.58;;;15.50;99.90;;;;;;5089247;28;20108;-70
2022/09/10 00:23:52;;;;;;;10.80;4.15;;;15.50;99.90;;;;;;5089155;28;20031;-71
2022/09/10 00:26:23;;;;;;;6.53;3.08;;;15.50;99.90;;;;;;5089442;28;20032;-71
2022/09/10 00:28:50;;;;;;;9.55;3.53;;;15.40;99.90;;;;;;5089436;28;20067;-71
2022/09/10 00:31:20;;;;;;;9.48;3.22;;;15.40;99.90;;;;;;5088997;28;20072;-71
2022/09/10 00:33:46;;;;;;;6.95;3.65;;;15.40;99.90;;;;;;5089203;28;20543;-71
2022/09/10 00:36:21;;;;;;;7.85;3.40;;;15.40;99.90;;;;;;5089120;28;20043;-71
2022/09/10 00:38:47;;;;;;;8.63;3.65;;;15.40;99.90;;;;;;5089503;28;20451;-71
2022/09/10 00:41:14;;;;;;;6.90;3.40;;;15.30;99.90;;;;;;5088862;28;20378;-71
2022/09/10 00:43:56;;;;;;;7.30;3.45;;;15.30;99.90;;;;;;5088924;28;20020;-70
2022/09/10 00:46:47;;;;;;;9.55;4.10;;;15.30;99.90;;;;;;5088653;28;20080;-71
2022/09/10 00:49:21;;;;;;;6.93;4.00;;;15.30;99.90;;;;;;5107696;28;20035;-71
2022/09/10 00:51:48;;;;;;;11.20;3.42;;;15.20;99.90;;;;;;5109162;28;20484;-70
2022/09/10 00:54:18;;;;;;;10.82;3.70;;;15.20;99.90;;;;;;5109257;28;20084;-72
2022/09/10 00:56:44;;;;;;;7.63;3.55;;;15.20;99.90;;;;;;5109080;28;20080;-71
2022/09/10 00:59:13;;;;;;;11.52;4.25;;;15.20;99.90;;;;;;5108843;28;20035;-71
2022/09/10 01:01:39;;;;;;;7.50;3.83;;;15.20;99.90;;;;;;5108674;28;20681;-71
2022/09/10 01:04:07;;;;;;;9.57;3.75;;;15.10;99.90;;;;;;5109116;28;20034;-72
2022/09/10 01:06:32;;;;;;;6.43;4.00;;;15.10;99.90;;;;;;5108554;28;20024;-72
2022/09/10 01:09:00;;;;;;;11.18;4.07;;;15.10;99.90;;;;;;5108990;28;20437;-73
2022/09/10 01:11:44;;;;;;;8.05;4.10;;;15.10;99.90;;;;;;5090812;28;20495;-72
2022/09/10 01:14:33;;;;;;;9.18;3.97;;;15.10;99.90;;;;;;5109138;28;20101;-72
2022/09/10 01:17:38;;;;;;;7.10;3.97;;;15.10;99.90;;;;;;5108869;28;20053;-71
2022/09/10 01:20:28;;;;;;;10.07;4.70;;;15.00;99.90;;;;;;5069391;28;20044;-72
2022/09/10 01:23:12;;;;;;;10.38;4.43;;;15.00;99.90;;;;;;5108668;28;20035;-70
2022/09/10 01:26:02;;;;;;;11.85;4.93;;;15.00;99.90;;;;;;5090413;28;20023;-69
2022/09/10 01:28:39;;;;;;;9.48;4.95;;;14.90;99.90;;;;;;5090106;28;20027;-70
2022/09/10 01:31:24;;;;;;;9.70;4.55;;;14.90;99.90;;;;;;5108390;28;20478;-71
2022/09/10 01:34:00;;;;;;;9.48;5.28;;;14.90;99.90;;;;;;5105649;28;20103;-70
2022/09/10 01:36:30;;;;;;;14.25;5.03;;;14.80;99.90;;;;;;5096683;28;20482;-70
2022/09/10 01:38:56;;;;;;;;;;;14.80;99.90;;;;;;5108515;28;20050;-70
2022/09/10 01:41:25;;;;;;;9.27;4.90;;;14.80;99.90;;;;;;5108498;28;20293;-73
2022/09/10 01:43:51;;;;;;;9.07;4.68;;;14.80;99.90;;;;;;5089849;28;20024;-72
2022/09/10 01:46:32;;;;;;;10.23;5.03;;;14.80;99.90;;;;;;5090028;28;20505;-71
2022/09/10 01:49:17;;;;;;;9.98;4.72;;;14.70;99.90;;;;;;5108329;28;20032;-71
2022/09/10 01:52:08;;;;;;;10.00;4.63;;;14.70;99.90;;;;;;5089206;28;20046;-70
2022/09/10 01:54:55;;;;;;;9.10;5.05;;;14.70;99.90;;;;;;5087974;28;20031;-73
2022/09/10 01:57:47;;;;;;;9.52;4.75;;;14.70;99.90;;;;;;5089763;28;20028;-71
2022/09/10 02:00:16;;;;;;;8.85;4.95;;;14.60;99.90;;;;;;5091965;28;20115;-71
2022/09/10 02:02:42;;;;;;;11.53;4.67;;;14.60;99.90;;;;;;5092127;28;20401;-71
2022/09/10 02:05:09;;;;;;;11.65;4.32;;;14.60;99.90;;;;;;5101794;28;20769;-71
2022/09/10 02:07:36;;;;;;;8.52;4.70;;;14.60;99.90;;;;;;5112394;28;20036;-71
2022/09/10 02:10:04;;;;;;;8.13;4.68;;;14.60;99.90;;;;;;5112432;28;20037;-70
2022/09/10 02:12:30;;;;;;;8.55;4.65;;;14.50;99.90;;;;;;5094148;28;20024;-71
2022/09/10 02:14:56;;;;;;;7.32;4.88;;;14.60;99.90;;;;;;5112062;28;20027;-71
2022/09/10 02:17:27;;;;;;;7.20;4.80;;;14.60;99.90;;;;;;5112415;28;20028;-71
2022/09/10 02:19:54;;;;;;;9.25;4.85;;;14.50;99.90;;;;;;5112132;28;20453;-71
2022/09/10 02:22:24;;;;;;;10.25;5.15;;;14.50;99.90;;;;;;5111893;28;20564;-71
2022/09/10 02:24:50;;;;;;;9.95;4.75;;;14.50;99.90;;;;;;5111979;28;20077;-71
2022/09/10 02:27:16;;;;;;;10.00;5.15;;;14.60;99.90;;;;;;5111935;28;20435;-71
2022/09/10 02:29:42;;;;;;;9.32;4.55;;;14.60;99.90;;;;;;5112007;28;20074;-70
2022/09/10 02:32:09;;;;;;;7.97;5.18;;;14.60;99.90;;;;;;5111960;28;20393;-71
2022/09/10 02:34:35;;;;;;;7.82;4.47;;;14.50;99.90;;;;;;5111800;28;20027;-71
2022/09/10 02:37:02;;;;;;;9.10;5.50;;;14.50;99.90;;;;;;5111889;28;20043;-71
2022/09/10 02:39:29;;;;;;;8.27;5.30;;;14.50;99.90;;;;;;5093206;28;20031;-71
2022/09/10 02:41:54;;;;;;;9.13;5.22;;;14.50;99.90;;;;;;5093186;28;20138;-71
2022/09/10 02:44:20;;;;;;;10.95;5.47;;;14.50;99.90;;;;;;5093190;28;20130;-70
2022/09/10 02:46:46;;;;;;;9.75;5.63;;;14.50;99.90;;;;;;5090258;28;20038;-71
2022/09/10 02:49:12;;;;;;;12.80;5.97;;;14.40;99.90;;;;;;5110030;28;20028;-70
2022/09/10 02:51:38;;;;;;;8.23;5.60;;;14.40;99.90;;;;;;5111683;28;20080;-70
2022/09/10 02:54:04;;;;;;;11.45;5.35;;;14.40;99.90;;;;;;5111885;28;20036;-71
2022/09/10 02:56:30;;;;;;;8.77;5.75;;;14.40;99.90;;;;;;5111583;28;20024;-71
2022/09/10 02:58:56;;;;;;;12.23;5.30;;;14.40;99.90;;;;;;5093214;28;20126;-72
2022/09/10 03:01:22;;;;;;;9.82;6.18;;;14.40;99.90;;;;;;5111531;28;20081;-70
2022/09/10 03:03:50;;;;;;;9.48;5.32;;;14.40;99.90;;;;;;5111532;28;20546;-71
2022/09/10 03:06:16;;;;;;;8.23;6.05;;;14.40;99.90;;;;;;5109964;28;20031;-71
2022/09/10 03:08:41;;;;;;;11.70;7.32;;;14.40;99.90;;;;;;5111394;27;20027;-70
2022/09/10 03:11:07;;;;;;;11.48;6.85;;;14.30;99.90;;;;;;5111275;28;20047;-71
2022/09/10 03:13:33;;;;;;;10.57;6.50;;;14.30;99.90;;;;;;5111344;28;20046;-70
2022/09/10 03:16:02;;;;;;;11.38;5.85;;;14.30;99.90;;;;;;5111208;28;20496;-72
2022/09/10 03:18:29;;;;;;;10.90;6.20;;;14.30;99.90;;;;;;5111291;28;20426;-71
2022/09/10 03:21:06;;;;;;;10.95;7.13;;;14.30;99.90;;;;;;5109438;28;20401;-71
2022/09/10 03:23:32;;;;;;;12.95;6.93;;;14.30;99.90;;;;;;5111206;28;20043;-71
2022/09/10 03:25:58;;;;;;;9.02;6.25;;;14.30;99.90;;;;;;5110987;28;20078;-71
2022/09/10 03:28:25;;;;;;;10.05;5.97;;;14.30;99.90;;;;;;5111027;28;20067;-71
2022/09/10 03:30:51;;;;;;;10.68;6.40;;;14.20;99.90;;;;;;5110778;28;20057;-70
2022/09/10 03:33:20;;;;;;;11.43;6.55;;;14.20;99.90;;;;;;5110652;28;20435;-71
2022/09/10 03:35:46;;;;;;;13.43;7.07;;;14.20;99.90;;;;;;5110968;27;20450;-70
2022/09/10 03:38:12;;;;;;;10.73;6.78;;;14.30;99.90;;;;;;5110603;28;20537;-70
2022/09/10 03:40:39;;;;;;;11.75;6.68;;;14.20;99.90;;;;;;5110620;28;20123;-71
2022/09/10 03:43:04;;;;;;;8.32;5.78;;;14.20;99.90;;;;;;5110567;28;20478;-70
2022/09/10 03:45:30;;;;;;;10.27;6.32;;;14.20;99.90;;;;;;5110663;28;20063;-70
2022/09/10 03:47:56;;;;;;;10.02;6.28;;;14.20;99.90;;;;;;5110560;28;20394;-70
2022/09/10 03:50:22;;;;;;;13.50;7.40;;;14.20;99.90;;;;;;5110785;28;20054;-71
2022/09/10 03:52:48;;;;;;;10.95;6.40;;;14.20;99.90;;;;;;5110828;28;20451;-70
2022/09/10 03:55:15;;;;;;;9.90;6.97;;;14.20;99.90;;;;;;5108996;28;20406;-71
2022/09/10 03:57:40;;;;;;;10.20;7.07;;;14.20;99.90;;;;;;5110382;28;20080;-71
2022/09/10 04:00:10;;;;;;;9.18;6.30;;;14.20;99.90;;;;;;5110417;28;20047;-71
2022/09/10 04:02:36;;;;;;;11.32;6.93;;;14.20;99.90;;;;;;5110401;28;20047;-71
2022/09/10 04:05:03;;;;;;;11.55;6.88;;;14.20;99.90;;;;;;5100878;28;20024;-71
2022/09/10 04:07:29;;;;;;;10.20;6.78;;;14.20;99.90;;;;;;5070978;28;20032;-71
2022/09/10 04:09:54;;;;;;;12.10;7.40;;;14.20;99.90;;;;;;5089380;28;20036;-71
2022/09/10 04:12:20;;;;;;;14.60;7.40;;;14.20;99.90;;;;;;5109014;28;20104;-71
2022/09/10 04:14:46;;;;;;;10.88;7.15;;;14.20;99.90;;;;;;5109985;28;20065;-71
2022/09/10 04:17:12;;;;;;;10.20;7.00;;;14.20;99.90;;;;;;5109857;28;20122;-71
2022/09/10 04:19:40;;;;;;;11.63;6.78;;;14.10;99.90;;;;;;5109573;28;20035;-70
2022/09/10 04:22:06;;;;;;;10.43;7.07;;;14.10;99.90;;;;;;5109515;28;20072;-71
2022/09/10 04:24:32;;;;;;;14.35;7.18;;;14.10;99.90;;;;;;5087354;28;20444;-71
2022/09/10 04:26:58;;;;;;;13.35;7.70;;;14.10;99.90;;;;;;5089213;28;20032;-72
2022/09/10 04:29:24;;;;;;;12.27;7.47;;;14.10;99.90;;;;;;5070795;28;20028;-72
2022/09/10 04:31:49;;;;;;;11.80;7.28;;;14.10;99.90;;;;;;5088911;28;20086;-72
2022/09/10 04:34:15;;;;;;;11.68;8.00;;;14.00;99.90;;;;;;5089015;28;20462;-71
2022/09/10 04:36:41;;;;;;;12.30;7.70;;;14.00;99.90;;;;;;5107273;28;20084;-71
2022/09/10 04:39:07;;;;;;;11.80;7.10;;;14.00;99.90;;;;;;5109167;28;20678;-71
2022/09/10 04:41:33;;;;;;;13.65;7.40;;;14.00;99.90;;;;;;5109498;28;20039;-71
2022/09/10 04:43:59;;;;;;;12.60;6.93;;;14.00;99.90;;;;;;5090688;28;20083;-71
2022/09/10 04:46:25;;;;;;;12.07;7.25;;;14.00;99.90;;;;;;5109172;28;20059;-71
2022/09/10 04:48:50;;;;;;;12.43;7.80;;;14.00;99.90;;;;;;5108911;28;20027;-71
2022/09/10 04:51:16;;;;;;;13.13;8.07;;;14.00;99.90;;;;;;5109158;28;20028;-71
2022/09/10 04:53:43;;;;;;;11.45;7.95;;;14.00;99.90;;;;;;5090487;28;20520;-70
2022/09/10 04:56:09;;;;;;;12.10;8.02;;;14.00;99.90;;;;;;5108698;28;20074;-71
2022/09/10 04:58:34;;;;;;;14.60;7.97;;;13.90;99.90;;;;;;5090806;28;20478;-71
2022/09/10 05:01:01;;;;;;;13.25;8.13;;;13.90;99.90;;;;;;5109310;28;20027;-71
2022/09/10 05:03:26;;;;;;;13.15;7.95;;;13.90;99.90;;;;;;5090699;28;20089;-71
2022/09/10 05:05:52;;;;;;;14.10;8.70;;;13.90;99.90;;;;;;5109231;28;20035;-72
2022/09/10 05:08:18;;;;;;;13.10;9.02;;;13.90;99.90;;;;;;5109173;28;20042;-71
2022/09/10 05:10:44;;;;;;;13.18;9.27;;;13.80;99.90;;;;;;5109280;28;20032;-71
2022/09/10 05:13:10;;;;;;;15.18;9.27;;;13.80;99.90;;;;;;5108975;28;20023;-71
2022/09/10 05:15:39;;;;;;;16.70;9.73;;;13.80;99.90;;;;;;5109127;28;20559;-71
2022/09/10 05:18:06;;;;;;;14.90;10.00;;;13.70;99.90;;;;;;5109138;28;20032;-71
2022/09/10 05:20:32;;;;;;;16.60;9.80;;;13.80;99.90;;;;;;5109038;28;20023;-71
2022/09/10 05:22:58;;;;;;;15.10;10.48;;;13.80;99.90;;;;;;5108641;28;20551;-71
2022/09/10 05:25:23;;;;;;;17.15;10.30;;;13.70;99.90;;;;;;5109120;28;20035;-71
2022/09/10 05:27:50;;;;;;;15.77;10.10;;;13.80;99.90;;;;;;5108833;28;20036;-71
2022/09/10 05:30:17;;;;;;;15.75;9.80;;;13.80;99.90;;;;;;5108756;28;20130;-71
2022/09/10 05:32:43;;;;;;;14.88;9.13;;;13.80;99.90;;;;;;5108230;28;20039;-71
2022/09/10 05:35:09;;;;;;;12.15;8.68;;;13.80;99.90;;;;;;5108728;28;20057;-71
2022/09/10 05:37:35;;;;;;;18.00;9.77;;;13.70;99.90;;;;;;5090067;28;20046;-72
2022/09/10 05:40:04;;;;;;;12.70;9.02;;;13.80;99.90;;;;;;5108589;28;20484;-71
2022/09/10 05:42:30;;;;;;;13.57;9.43;;;13.80;99.90;;;;;;5108607;28;20071;-71
2022/09/10 05:44:55;;;;;;;14.00;9.93;;;13.80;99.90;;;;;;5108312;28;20086;-71
2022/09/10 05:47:21;;;;;;;15.43;9.25;;;13.80;99.90;;;;;;5090224;28;20031;-71
2022/09/10 05:49:48;;;;;;;14.20;9.23;;;13.80;99.90;;;;;;5090275;28;20513;-71
2022/09/10 05:52:14;;;;;;;12.68;8.82;;;13.80;99.90;;;;;;5108249;28;20032;-70
2022/09/10 05:54:40;;;;;;;14.18;8.73;;;13.80;99.90;;;;;;5108382;28;20032;-71
2022/09/10 05:57:05;;;;;;;13.30;8.38;;;13.80;99.90;;;;;;5108342;28;20035;-71
2022/09/10 05:59:33;;;;;;;14.30;8.77;;;13.70;99.90;;;;;;5090197;28;20088;-71
2022/09/10 06:01:59;;;;;;;15.85;8.50;;;13.80;99.90;;;;;;5090993;28;20036;-71
2022/09/10 06:04:25;;;;;;;13.82;8.07;;;13.80;99.90;;;;;;5107791;28;20036;-71
2022/09/10 06:06:51;;;;;;;13.02;8.65;;;13.80;99.90;;;;;;5086045;28;20039;-72
2022/09/10 06:09:18;;;;;;;11.38;8.07;;;13.80;99.90;;;;;;5105169;28;20102;-71
2022/09/10 06:11:46;;;;;;;12.50;8.20;;;13.80;99.90;;;;;;5107924;28;20039;-72
2022/09/10 06:14:13;;;;;;;13.50;8.75;;;13.90;99.90;;;;;;5108157;28;20030;-71
2022/09/10 06:16:39;;;;;;;11.48;7.95;;;13.90;99.90;;;;;;5089693;28;20081;-72
2022/09/10 06:19:05;;;;;;;11.52;8.30;;;13.90;99.90;;;;;;5107771;28;20032;-70
2022/09/10 06:21:31;;;;;;;13.25;8.38;;;14.00;99.90;;;;;;5107974;28;20043;-71
2022/09/10 06:23:56;;;;;;;13.52;8.52;;;14.00;99.90;;;;;;5108087;28;20084;-71
2022/09/10 06:26:23;;;;;;;12.40;7.93;;;14.00;99.90;;;;;;5108166;28;20027;-71
2022/09/10 06:28:48;;;;;;;12.68;7.80;;;14.00;99.90;;;;;;5108297;28;20030;-71
2022/09/10 06:31:18;;;;;;;12.70;7.88;;;14.00;99.90;;;;;;5086307;28;20032;-70
2022/09/10 06:33:50;;;;;;;12.13;7.68;;;14.00;99.90;;;;;;5087518;28;20039;-71
2022/09/10 06:36:16;;;;;;;11.93;8.02;;;14.00;99.90;;;;;;5069153;28;20401;-71
2022/09/10 06:38:43;;;;;;;13.50;8.05;;;14.10;99.90;;;;;;5087605;28;20042;-71
2022/09/10 06:41:12;;;;;;;10.70;7.40;;;14.20;99.90;;;;;;5087719;28;20046;-70
2022/09/10 06:43:39;;;;;;;12.10;7.85;;;14.20;99.90;;;;;;5089739;28;20059;-71
2022/09/10 06:46:12;;;;;;;15.90;7.45;;;14.30;99.90;;;;;;5091288;28;20044;-73
2022/09/10 06:48:39;;;;;;;12.02;7.30;;;14.30;99.90;;;;;;5092670;27;20036;-73
2022/09/10 06:51:07;;;;;;;14.38;7.65;;;14.40;99.90;;;;;;5111169;28;20039;-70
2022/09/10 06:53:32;;;;;;;10.45;6.80;;;14.50;99.90;;;;;;5111424;28;20054;-70
2022/09/10 06:56:04;;;;;;;10.82;7.32;;;14.60;99.90;;;;;;5111613;28;20031;-71
2022/09/10 06:58:33;;;;;;;11.70;7.28;;;14.60;99.90;;;;;;5111368;28;20038;-70
2022/09/10 07:01:05;;;;;;;8.13;6.53;;;14.70;99.90;;;;;;5111372;28;20031;-71
2022/09/10 07:03:30;;;;;;;9.90;6.97;;;14.80;99.90;;;;;;5111077;28;20039;-71
2022/09/10 07:06:01;;;;;;;10.40;6.07;;;14.90;99.90;;;;;;5111322;28;20028;-71
2022/09/10 07:08:27;;;;;;;9.75;6.95;;;15.00;99.90;;;;;;5093050;28;20032;-71
2022/09/10 07:10:59;;;;;;;8.70;6.15;;;15.00;99.90;;;;;;5111392;28;20116;-71
2022/09/10 07:13:26;;;;;;;12.13;6.82;;;15.10;99.90;;;;;;5111395;28;20110;-70
2022/09/10 07:15:52;;;;;;;9.18;6.40;;;15.30;99.90;;;;;;5111371;28;20521;-71
2022/09/10 07:18:18;;;;;;;9.02;5.97;;;15.40;99.90;;;;;;5099032;28;20486;-71
2022/09/10 07:20:44;;;;;;;8.93;5.65;;;15.40;99.90;;;;;;5107856;28;20074;-71
2022/09/10 07:23:16;;;;;;;10.07;6.15;;;15.50;99.90;;;;;;5106696;28;20036;-72
2022/09/10 07:25:42;;;;;;;10.15;6.57;;;15.50;99.90;;;;;;5090404;28;20038;-72
2022/09/10 07:28:12;;;;;;;10.23;6.43;;;15.50;99.90;;;;;;5090350;28;20044;-71
2022/09/10 07:30:41;;;;;;;8.48;5.65;;;15.60;99.90;;;;;;5090322;28;20036;-73
2022/09/10 07:33:07;;;;;;;;;;;15.60;99.90;;;;;;5090559;28;20036;-72
2022/09/10 07:35:35;;;;;;;9.20;6.38;;;15.60;99.90;;;;;;5095741;28;20229;-72
2022/09/10 07:38:01;;;;;;;9.18;6.43;;;15.60;99.90;;;;;;5110735;28;20023;-71
2022/09/10 07:40:27;;;;;;;9.32;6.78;;;15.60;99.90;;;;;;5110563;28;20132;-71
2022/09/10 07:42:55;;;;;;;10.13;7.70;;;15.70;99.90;;;;;;5110659;28;20509;-71
2022/09/10 07:45:21;;;;;;;11.65;7.95;;;15.70;99.90;;;;;;5110455;28;20051;-72
2022/09/10 07:47:48;;;;;;;9.80;6.68;;;15.80;99.90;;;;;;5109933;28;20477;-72
2022/09/10 07:50:14;;;;;;;9.77;6.95;;;15.80;99.90;;;;;;5110382;28;20032;-72
2022/09/10 07:52:40;;;;;;;12.43;6.60;;;15.90;99.90;;;;;;5110411;28;20028;-73
2022/09/10 07:55:08;;;;;;;12.63;6.72;;;16.00;99.90;;;;;;5109325;28;20084;-72
2022/09/10 07:57:36;;;;;;;10.77;6.70;;;16.10;99.90;;;;;;5110404;28;20031;-71
2022/09/10 08:00:05;;;;;;;9.63;7.03;;;16.10;99.90;;;;;;5110186;28;20027;-72
2022/09/10 08:02:31;;;;;;;9.27;6.20;;;16.20;99.90;;;;;;5110248;28;20039;-72
2022/09/10 08:04:56;;;;;;;11.32;6.70;;;16.30;99.90;;;;;;5110144;28;20143;-72
2022/09/10 08:07:22;;;;;;;9.93;6.68;;;16.40;99.90;;;;;;5110106;28;20031;-72
2022/09/10 08:09:48;;;;;;;8.27;5.90;;;16.40;99.90;;;;;;5091721;28;20093;-73
2022/09/10 08:12:16;;;;;;;11.57;6.57;;;16.50;99.90;;;;;;5102892;28;20023;-72
2022/09/10 08:14:41;;;;;;;12.60;7.03;;;16.50;99.90;;;;;;5089301;28;20039;-72
2022/09/10 08:17:07;;;;;;;9.30;6.60;;;16.60;99.90;;;;;;5089167;28;20032;-72
2022/09/10 08:19:33;;;;;;;10.95;7.65;;;16.70;99.90;;;;;;5071216;28;20032;-73
2022/09/10 08:21:58;;;;;;;11.05;7.30;;;16.80;99.90;;;;;;5089340;28;20142;-73
2022/09/10 08:24:24;;;;;;;10.05;6.68;;;16.80;99.90;;;;;;5089471;28;20032;-72
2022/09/10 08:26:50;;;;;;;9.38;6.65;;;16.90;99.90;;;;;;5089572;28;20044;-72
2022/09/10 08:29:16;;;;;;;8.68;6.43;;;16.90;99.90;;;;;;5089572;28;20039;-72
2022/09/10 08:31:41;;;;;;;9.25;5.47;;;17.00;99.90;;;;;;5089471;28;20039;-73
2022/09/10 08:34:10;;;;;;;8.88;5.35;;;17.10;99.90;;;;;;5078998;28;20477;-72
2022/09/10 08:36:37;;;;;;;9.82;5.15;;;17.20;99.90;;;;;;5089388;28;20036;-72
2022/09/10 08:39:03;;;;;;;6.97;5.00;;;17.20;99.90;;;;;;5089175;28;20038;-72
2022/09/10 08:41:37;;;;;;;8.32;5.13;;;17.30;99.90;;;;;;5070789;28;20040;-72
2022/09/10 08:44:24;;;;;;;8.52;5.60;;;17.40;99.90;;;;;;5089781;28;20056;-72
2022/09/10 08:47:08;;;;;;;7.70;5.22;;;17.50;99.90;;;;;;5109062;28;20393;-72
2022/09/10 08:50:07;;;;;;;8.05;5.22;;;17.50;99.90;;;;;;5109416;28;20032;-73
2022/09/10 08:52:43;;;;;;;8.07;4.65;;;17.60;99.90;;;;;;5108742;28;20366;-72
2022/09/10 08:55:18;;;;;;;12.23;5.32;;;17.60;99.90;;;;;;5109263;28;20088;-72
2022/09/10 08:57:53;;;;;;;7.88;5.20;;;17.70;99.90;;;;;;5109124;28;20027;-72
2022/09/10 09:00:22;;;;;;;7.85;5.13;;;17.80;99.90;;;;;;5108777;28;20533;-72
2022/09/10 09:03:13;;;;;;;8.53;5.20;;;17.70;99.90;;;;;;5090223;28;20047;-72
2022/09/10 09:06:07;;;;;;;9.38;5.57;;;17.70;99.90;;;;;;5108920;28;20032;-72
2022/09/10 09:08:47;;;;;;;9.57;5.03;;;17.60;99.90;;;;;;5108266;28;20051;-72
2022/09/10 09:11:29;;;;;;;;;;;17.50;99.90;;;;;;5108004;28;20072;-72
2022/09/10 09:14:24;;;;;;;7.97;4.95;;;17.50;99.90;;;;;;5108520;28;19961;-72
2022/09/10 09:17:11;;;;;;;7.85;5.85;;;17.50;99.90;;;;;;5090369;28;20027;-73
2022/09/10 09:20:21;;;;;;;9.57;5.75;;;17.40;99.90;;;;;;5108879;28;20059;-72
2022/09/10 09:23:01;;;;;;;9.48;4.97;;;17.40;99.90;;;;;;5008452;28;20064;-72
2022/09/10 09:25:44;;;;;;;7.97;5.20;;;17.40;99.90;;;;;;5025230;28;20084;-73
2022/09/10 09:28:37;;;;;;;8.82;5.75;;;17.50;99.90;;;;;;5025130;28;20146;-72
2022/09/10 09:31:11;;;;;;;8.30;5.32;;;17.50;99.90;;;;;;5005148;28;20129;-72
2022/09/10 09:33:38;;;;;;;9.40;5.50;;;17.50;99.90;;;;;;5005516;28;20571;-72
2022/09/10 09:36:05;;;;;;;9.13;5.00;;;17.50;99.90;;;;;;5005239;28;20037;-73
2022/09/10 09:38:42;;;;;;;9.90;5.63;;;17.60;99.90;;;;;;4988762;28;20041;-73
2022/09/10 09:41:15;;;;;;;8.65;5.20;;;17.70;99.90;;;;;;5005333;28;20036;-72
2022/09/10 09:44:22;;;;;;;9.27;5.30;;;17.80;99.90;;;;;;5004914;28;20388;-72
2022/09/10 09:46:48;;;;;;;9.95;5.63;;;17.90;99.90;;;;;;5005444;28;20034;-72
2022/09/10 09:49:15;;;;;;;9.63;5.63;;;17.90;99.90;;;;;;5005157;28;20140;-72
2022/09/10 09:51:44;;;;;;;8.45;5.40;;;17.80;99.90;;;;;;5005065;28;20033;-73
2022/09/10 09:54:21;;;;;;;9.43;5.30;;;17.80;99.90;;;;;;5005260;28;20041;-72
2022/09/10 09:56:53;;;;;;;8.05;5.05;;;18.00;99.90;;;;;;5034308;28;20093;-72
2022/09/10 09:59:27;;;;;;;7.80;5.25;;;18.30;99.90;;;;;;5064788;28;20079;-72
2022/09/10 10:01:57;;;;;;;5.85;4.45;;;18.60;99.90;;;;;;5043191;28;20037;-73
2022/09/10 10:04:25;;;;;;;7.15;4.47;;;18.70;99.90;;;;;;5027954;28;20029;-72
2022/09/10 10:06:56;;;;;;;8.05;5.05;;;18.80;99.90;;;;;;5028283;28;20036;-73
2022/09/10 10:09:26;;;;;;;7.22;4.60;;;19.00;99.90;;;;;;5069347;28;20050;-73
2022/09/10 10:12:03;;;;;;;7.75;4.45;;;19.20;99.90;;;;;;5088086;28;20032;-73
2022/09/10 10:14:42;;;;;;;7.05;4.30;;;19.30;99.90;;;;;;5087903;28;20032;-73
2022/09/10 10:17:29;;;;;;;7.23;4.57;;;19.40;99.90;;;;;;5087929;28;20040;-73
2022/09/10 10:20:06;;;;;;;6.63;4.30;;;19.50;99.90;;;;;;5091686;28;20119;-73
2022/09/10 10:22:32;;;;;;;5.68;3.83;;;19.50;99.90;;;;;;5091813;28;20430;-73
2022/09/10 10:25:04;;;;;;;7.30;3.95;;;19.70;99.90;;;;;;5091874;28;20074;-72
2022/09/10 10:27:31;;;;;;;6.78;4.00;;;19.60;99.90;;;;;;5091568;28;20050;-72
2022/09/10 10:30:00;;;;;;;7.53;3.90;;;19.70;99.90;;;;;;5091543;28;20028;-73
2022/09/10 10:32:47;;;;;;;8.05;3.80;;;19.60;99.90;;;;;;5092222;28;20032;-72
2022/09/10 10:35:33;;;;;;;8.05;3.80;;;19.50;99.90;;;;;;5095025;28;20032;-73
2022/09/10 10:38:32;;;;;;;8.57;4.15;;;19.40;99.90;;;;;;5111699;28;20038;-73
2022/09/10 10:41:02;;;;;;;6.45;3.85;;;19.20;99.90;;;;;;5093848;28;20042;-73
2022/09/10 10:43:52;;;;;;;7.28;3.70;;;19.00;99.90;;;;;;5091270;28;20061;-73
2022/09/10 10:46:20;;;;;;;5.60;3.63;;;18.90;99.90;;;;;;5091100;28;20127;-73
2022/09/10 10:49:05;;;;;;;6.07;3.70;;;18.80;99.90;;;;;;5109246;28;20043;-73
2022/09/10 10:51:46;;;;;;;6.78;3.72;;;18.80;99.90;;;;;;5105581;28;20028;-73
2022/09/10 10:54:41;;;;;;;6.15;4.35;;;18.80;99.90;;;;;;5090829;28;20089;-72
2022/09/10 10:57:19;;;;;;;8.27;4.32;;;18.80;99.90;;;;;;5095135;28;20030;-72
2022/09/10 11:00:02;;;;;;;6.90;4.38;;;18.80;99.90;;;;;;5111314;28;20035;-71
2022/09/10 11:02:28;;;;;;;8.40;4.93;;;18.80;99.90;;;;;;5111336;28;20489;-72
2022/09/10 11:04:57;;;;;;;7.20;4.30;;;18.80;99.90;;;;;;5111215;28;20102;-72
2022/09/10 11:07:38;;;;;;;7.50;4.57;;;18.90;99.90;;;;;;5092836;28;20055;-72
2022/09/10 11:10:13;;;;;;;6.90;4.18;;;19.20;99.90;;;;;;5111315;28;20040;-72
2022/09/10 11:13:02;;;;;;;9.05;4.57;;;19.30;99.90;;;;;;5111252;28;20035;-72
2022/09/10 11:15:42;;;;;;;10.50;4.50;;;19.30;99.90;;;;;;5111335;28;20028;-72
2022/09/10 11:18:33;;;;;;;6.15;3.97;;;19.40;99.90;;;;;;5111063;28;20119;-73
2022/09/10 11:21:13;;;;;;;5.80;3.65;;;19.40;99.90;;;;;;5068685;28;20090;-72
2022/09/10 11:23:38;;;;;;;7.10;3.78;;;19.40;99.90;;;;;;5111158;28;20047;-72
2022/09/10 11:26:32;;;;;;;8.50;3.88;;;19.40;99.90;;;;;;5110777;28;20038;-72
2022/09/10 11:29:10;;;;;;;5.63;3.60;;;19.50;99.90;;;;;;5110413;28;20047;-72
2022/09/10 11:31:43;;;;;;;6.78;3.70;;;19.40;99.90;;;;;;5092407;28;20890;-72
2022/09/10 11:34:46;;;;;;;6.30;2.75;;;19.30;99.90;;;;;;5092547;28;20032;-72
2022/09/10 11:37:50;;;;;;;6.03;2.80;;;19.30;99.90;;;;;;5060227;28;20187;-72
2022/09/10 11:40:59;;;;;;;5.75;3.33;;;19.30;99.90;;;;;;5110506;28;20023;-72
2022/09/10 11:43:52;;;;;;;5.03;3.28;;;19.20;99.90;;;;;;5110690;28;20032;-72
2022/09/10 11:46:31;;;;;;;6.93;4.03;;;19.20;99.90;;;;;;5110384;28;20432;-72
2022/09/10 11:49:06;;;;;;;6.70;3.90;;;19.30;99.90;;;;;;5110447;28;20039;-72
2022/09/10 11:51:37;;;;;;;6.63;3.75;;;19.40;99.90;;;;;;5110317;28;20114;-72
2022/09/10 11:54:08;;;;;;;7.97;3.92;;;19.30;99.90;;;;;;5110253;28;20024;-72
2022/09/10 11:56:44;;;;;;;5.25;3.15;;;19.30;99.90;;;;;;5110547;28;20091;-72
2022/09/10 11:59:23;;;;;;;6.07;2.75;;;19.30;99.90;;;;;;5110289;28;20114;-72
2022/09/10 12:02:06;;;;;;;6.38;2.90;;;19.50;99.90;;;;;;5110342;28;20035;-72
2022/09/10 12:05:03;;;;;;;6.85;2.80;;;19.80;99.90;;;;;;5110409;28;20032;-72
2022/09/10 12:07:55;;;;;;;6.30;3.22;;;19.90;99.90;;;;;;5109825;28;20525;-73
2022/09/10 12:10:37;;;;;;;6.18;3.30;;;19.90;99.90;;;;;;5091537;28;20481;-72
2022/09/10 12:13:08;;;;;;;6.72;2.67;;;19.80;99.90;;;;;;5110417;28;20416;-73
2022/09/10 12:15:35;;;;;;;6.90;3.08;;;19.60;99.90;;;;;;5110167;28;20039;-72
2022/09/10 12:18:21;;;;;;;6.70;2.80;;;19.40;99.90;;;;;;5110364;28;20088;-72
2022/09/10 12:21:01;;;;;;;5.18;2.42;;;19.30;99.90;;;;;;5110322;28;20739;-72
2022/09/10 12:23:32;;;;;;;5.43;2.38;;;19.30;99.90;;;;;;5109644;28;20035;-72
2022/09/10 12:26:07;;;;;;;5.15;2.30;;;19.50;99.90;;;;;;5109901;28;20031;-72
2022/09/10 12:28:41;;;;;;;5.40;2.22;;;19.90;99.90;;;;;;5109897;28;20035;-72
2022/09/10 12:31:15;;;;;;;4.72;2.03;;;20.20;99.90;;;;;;5109564;28;20036;-73
2022/09/10 12:33:44;;;;;;;4.10;2.25;;;20.70;99.90;;;;;;5109645;28;20027;-73
2022/09/10 12:36:13;;;;;;;4.03;1.90;;;20.90;99.90;;;;;;5109803;28;20072;-71
2022/09/10 12:38:52;;;;;;;4.55;1.85;;;20.90;99.90;;;;;;5091172;28;20028;-71
2022/09/10 12:41:23;;;;;;;;;;;20.70;99.90;;;;;;5109581;28;20032;-72
2022/09/10 12:44:00;;;;;;;4.32;2.10;;;20.60;99.90;;;;;;5109464;28;19968;-71
2022/09/10 12:46:27;;;;;;;4.82;2.30;;;20.60;99.90;;;;;;5091203;28;20043;-72
2022/09/10 12:48:55;;;;;;;7.20;2.65;;;20.70;99.90;;;;;;5109023;28;20598;-72
2022/09/10 12:51:30;;;;;;;5.72;2.40;;;21.00;99.90;;;;;;5090727;28;20024;-72
2022/09/10 12:54:19;;;;;;;5.68;1.92;;;21.20;99.90;;;;;;5109046;28;20485;-72
2022/09/10 12:56:44;;;;;;;3.58;1.60;;;21.40;99.90;;;;;;5108632;28;20568;-72
2022/09/10 12:59:45;;;;;;;7.00;2.10;;;21.40;99.90;;;;;;5090584;28;20062;-72
2022/09/10 13:02:31;;;;;;;5.68;2.00;;;21.40;99.90;;;;;;5091392;28;20408;-72
2022/09/10 13:05:21;;;;;;;5.55;2.13;;;21.40;99.90;;;;;;5098997;28;20044;-71
2022/09/10 13:08:09;;;;;;;6.47;2.38;;;21.40;99.90;;;;;;5108278;28;20020;-72